Terminal Aerodrome Forecast
Issued by NWS

Home | Current Version | Previous Version | Text Only | Print | Product List | Glossary On
Versions: 1 2 3 4 5 6 7 8 9 10 11 12
000
FTUS44 KTSA 201700
TAFBVO
TAF
KBVO 201720Z 2018/2118 16004KT P6SM SCT060
     FM202100 06004KT P6SM SCT100
     FM210100 VRB03KT P6SM BKN250
     FM210900 00000KT 4SM BR BKN040
     FM211400 12004KT P6SM BKN025=

USA.gov is the U.S. government's official web portal to all federal, state and local government web resources and services.